sensor_id;sensor_type;location;lat;lon;timestamp;temperature;humidity
17529;DHT22;8882;53.192;8.184;2022-09-16T04:32:06;11.40;99.90
17529;DHT22;8882;53.192;8.184;2022-09-16T04:34:32;11.40;99.90
17529;DHT22;8882;53.192;8.184;2022-09-16T04:36:58;11.30;99.90
17529;DHT22;8882;53.192;8.184;2022-09-16T04:39:23;11.30;99.90
17529;DHT22;8882;53.192;8.184;2022-09-16T04:41:49;11.30;99.90
17529;DHT22;8882;53.192;8.184;2022-09-16T04:44:14;11.30;99.90
17529;DHT22;8882;53.192;8.184;2022-09-16T04:46:40;11.20;99.90
17529;DHT22;8882;53.192;8.184;2022-09-16T04:49:05;11.20;99.90
17529;DHT22;8882;53.192;8.184;2022-09-16T04:51:31;11.20;99.90
17529;DHT22;8882;53.192;8.184;2022-09-16T04:53:58;11.20;99.90
17529;DHT22;8882;53.192;8.184;2022-09-16T04:56:26;11.10;99.90
17529;DHT22;8882;53.192;8.184;2022-09-16T04:58:55;11.10;99.90
17529;DHT22;8882;53.192;8.184;2022-09-16T05:01:25;11.10;99.90
17529;DHT22;8882;53.192;8.184;2022-09-16T05:03:53;11.00;99.90
17529;DHT22;8882;53.192;8.184;2022-09-16T05:06:24;11.00;99.90
17529;DHT22;8882;53.192;8.184;2022-09-16T05:08:51;11.00;99.90
17529;DHT22;8882;53.192;8.184;2022-09-16T05:11:19;11.00;99.90
17529;DHT22;8882;53.192;8.184;2022-09-16T05:13:45;11.10;99.90
17529;DHT22;8882;53.192;8.184;2022-09-16T05:16:13;11.20;99.90
17529;DHT22;8882;53.192;8.184;2022-09-16T05:18:40;11.10;99.90
17529;DHT22;8882;53.192;8.184;2022-09-16T05:21:09;11.10;99.90
17529;DHT22;8882;53.192;8.184;2022-09-16T05:23:35;11.00;99.90
17529;DHT22;8882;53.192;8.184;2022-09-16T05:26:08;11.00;99.90
17529;DHT22;8882;53.192;8.184;2022-09-16T05:28:34;10.90;99.90
17529;DHT22;8882;53.192;8.184;2022-09-16T05:31:13;10.90;99.90
17529;DHT22;8882;53.192;8.184;2022-09-16T05:33:41;10.90;99.90
17529;DHT22;8882;53.192;8.184;2022-09-16T05:36:12;10.90;99.90
17529;DHT22;8882;53.192;8.184;2022-09-16T05:38:38;10.90;99.90
17529;DHT22;8882;53.192;8.184;2022-09-16T05:41:05;10.90;99.90
17529;DHT22;8882;53.192;8.184;2022-09-16T05:43:31;10.90;99.90
17529;DHT22;8882;53.192;8.184;2022-09-16T05:45:57;10.90;99.90
17529;DHT22;8882;53.192;8.184;2022-09-16T05:48:24;10.90;99.90
17529;DHT22;8882;53.192;8.184;2022-09-16T05:50:51;11.00;99.90
17529;DHT22;8882;53.192;8.184;2022-09-16T05:53:17;10.90;99.90
17529;DHT22;8882;53.192;8.184;2022-09-16T05:55:56;11.00;99.90
17529;DHT22;8882;53.192;8.184;2022-09-16T05:58:23;11.00;99.90
17529;DHT22;8882;53.192;8.184;2022-09-16T06:00:49;11.00;99.90
17529;DHT22;8882;53.192;8.184;2022-09-16T06:03:15;11.00;99.90
17529;DHT22;8882;53.192;8.184;2022-09-16T06:05:40;11.00;99.90
17529;DHT22;8882;53.192;8.184;2022-09-16T06:08:06;11.00;99.90
17529;DHT22;8882;53.192;8.184;2022-09-16T06:10:39;11.00;99.90
17529;DHT22;8882;53.192;8.184;2022-09-16T06:13:05;11.10;99.90
17529;DHT22;8882;53.192;8.184;2022-09-16T06:15:30;11.10;99.90
17529;DHT22;8882;53.192;8.184;2022-09-16T06:17:56;11.20;99.90
17529;DHT22;8882;53.192;8.184;2022-09-16T06:20:22;11.30;99.90
17529;DHT22;8882;53.192;8.184;2022-09-16T06:22:48;11.30;99.90
17529;DHT22;8882;53.192;8.184;2022-09-16T06:25:14;11.30;99.90
17529;DHT22;8882;53.192;8.184;2022-09-16T06:27:39;11.40;99.90
17529;DHT22;8882;53.192;8.184;2022-09-16T06:30:05;11.50;99.90
17529;DHT22;8882;53.192;8.184;2022-09-16T06:32:31;11.70;99.90
17529;DHT22;8882;53.192;8.184;2022-09-16T06:34:56;11.90;99.90
17529;DHT22;8882;53.192;8.184;2022-09-16T06:37:22;12.00;99.90
17529;DHT22;8882;53.192;8.184;2022-09-16T06:39:47;12.10;99.90
17529;DHT22;8882;53.192;8.184;2022-09-16T06:42:13;12.10;99.90
17529;DHT22;8882;53.192;8.184;2022-09-16T06:44:38;12.20;99.90
17529;DHT22;8882;53.192;8.184;2022-09-16T06:47:04;12.40;99.90
17529;DHT22;8882;53.192;8.184;2022-09-16T06:49:29;12.40;99.90
17529;DHT22;8882;53.192;8.184;2022-09-16T06:51:55;12.50;99.90
17529;DHT22;8882;53.192;8.184;2022-09-16T06:54:20;12.60;99.90
17529;DHT22;8882;53.192;8.184;2022-09-16T06:56:46;12.70;99.90
17529;DHT22;8882;53.192;8.184;2022-09-16T06:59:12;12.90;99.90
17529;DHT22;8882;53.192;8.184;2022-09-16T07:01:39;13.00;99.90
17529;DHT22;8882;53.192;8.184;2022-09-16T07:04:07;13.00;99.90
17529;DHT22;8882;53.192;8.184;2022-09-16T07:06:34;12.90;99.90
17529;DHT22;8882;53.192;8.184;2022-09-16T07:09:00;12.80;99.90
17529;DHT22;8882;53.192;8.184;2022-09-16T07:11:26;12.80;99.90
17529;DHT22;8882;53.192;8.184;2022-09-16T07:13:52;12.70;99.90
17529;DHT22;8882;53.192;8.184;2022-09-16T07:16:22;12.70;99.90
17529;DHT22;8882;53.192;8.184;2022-09-16T07:18:56;12.80;99.90
17529;DHT22;8882;53.192;8.184;2022-09-16T07:21:23;12.90;99.90
17529;DHT22;8882;53.192;8.184;2022-09-16T07:23:50;13.00;99.90
17529;DHT22;8882;53.192;8.184;2022-09-16T07:26:21;13.10;99.90
17529;DHT22;8882;53.192;8.184;2022-09-16T07:28:48;13.20;99.90
17529;DHT22;8882;53.192;8.184;2022-09-16T07:31:21;13.10;99.90
17529;DHT22;8882;53.192;8.184;2022-09-16T07:33:50;13.20;99.90
17529;DHT22;8882;53.192;8.184;2022-09-16T07:36:18;13.20;99.90
17529;DHT22;8882;53.192;8.184;2022-09-16T07:38:44;13.20;99.90
17529;DHT22;8882;53.192;8.184;2022-09-16T07:41:13;13.20;99.90
17529;DHT22;8882;53.192;8.184;2022-09-16T07:43:40;13.30;99.90
17529;DHT22;8882;53.192;8.184;2022-09-16T07:46:06;13.40;99.90
17529;DHT22;8882;53.192;8.184;2022-09-16T07:48:34;13.40;99.90
17529;DHT22;8882;53.192;8.184;2022-09-16T07:51:10;13.50;99.90
17529;DHT22;8882;53.192;8.184;2022-09-16T07:53:37;13.60;99.90
17529;DHT22;8882;53.192;8.184;2022-09-16T07:56:08;13.60;99.90
17529;DHT22;8882;53.192;8.184;2022-09-16T07:58:34;13.60;99.90
17529;DHT22;8882;53.192;8.184;2022-09-16T08:01:00;13.70;99.90
17529;DHT22;8882;53.192;8.184;2022-09-16T08:03:26;13.80;99.90
17529;DHT22;8882;53.192;8.184;2022-09-16T08:05:51;13.90;99.90
17529;DHT22;8882;53.192;8.184;2022-09-16T08:08:17;14.00;99.90
17529;DHT22;8882;53.192;8.184;2022-09-16T08:10:43;14.00;99.90
17529;DHT22;8882;53.192;8.184;2022-09-16T08:13:08;14.10;99.90
17529;DHT22;8882;53.192;8.184;2022-09-16T08:15:34;14.10;99.90
17529;DHT22;8882;53.192;8.184;2022-09-16T08:18:00;14.20;99.90
17529;DHT22;8882;53.192;8.184;2022-09-16T08:20:25;14.30;99.90
17529;DHT22;8882;53.192;8.184;2022-09-16T08:22:52;14.40;99.90
17529;DHT22;8882;53.192;8.184;2022-09-16T08:25:18;14.50;99.90
17529;DHT22;8882;53.192;8.184;2022-09-16T08:27:43;14.50;99.90
17529;DHT22;8882;53.192;8.184;2022-09-16T08:30:09;14.60;99.90
17529;DHT22;8882;53.192;8.184;2022-09-16T08:32:35;14.70;99.90
17529;DHT22;8882;53.192;8.184;2022-09-16T08:35:01;14.80;99.90
17529;DHT22;8882;53.192;8.184;2022-09-16T08:37:26;14.80;99.90
17529;DHT22;8882;53.192;8.184;2022-09-16T08:39:52;15.00;99.90
17529;DHT22;8882;53.192;8.184;2022-09-16T08:42:41;15.10;99.90
17529;DHT22;8882;53.192;8.184;2022-09-16T08:45:25;15.30;99.90
17529;DHT22;8882;53.192;8.184;2022-09-16T08:48:19;15.40;99.90
17529;DHT22;8882;53.192;8.184;2022-09-16T08:50:49;15.50;99.90
17529;DHT22;8882;53.192;8.184;2022-09-16T08:54:17;15.60;99.90
17529;DHT22;8882;53.192;8.184;2022-09-16T08:56:23;15.60;99.90
17529;DHT22;8882;53.192;8.184;2022-09-16T08:58:53;15.70;99.90
17529;DHT22;8882;53.192;8.184;2022-09-16T09:01:31;15.90;99.90
17529;DHT22;8882;53.192;8.184;2022-09-16T09:03:58;16.10;99.90
17529;DHT22;8882;53.192;8.184;2022-09-16T09:12:05;16.50;99.90
17529;DHT22;8882;53.192;8.184;2022-09-16T09:20:26;16.50;99.90
17529;DHT22;8882;53.192;8.184;2022-09-16T09:25:41;16.20;99.90
17529;DHT22;8882;53.192;8.184;2022-09-16T09:30:54;16.00;99.90
17529;DHT22;8882;53.192;8.184;2022-09-16T09:33:39;16.20;99.90
17529;DHT22;8882;53.192;8.184;2022-09-16T09:39:05;16.40;99.90
17529;DHT22;8882;53.192;8.184;2022-09-16T09:41:37;16.50;99.90
17529;DHT22;8882;53.192;8.184;2022-09-16T09:44:33;16.60;99.90
17529;DHT22;8882;53.192;8.184;2022-09-16T09:47:04;16.80;99.90
17529;DHT22;8882;53.192;8.184;2022-09-16T09:49:38;17.00;99.90
17529;DHT22;8882;53.192;8.184;2022-09-16T09:52:15;17.10;99.90
17529;DHT22;8882;53.192;8.184;2022-09-16T09:54:45;16.90;99.90
17529;DHT22;8882;53.192;8.184;2022-09-16T09:57:49;16.70;99.90
17529;DHT22;8882;53.192;8.184;2022-09-16T10:00:18;16.60;99.90
17529;DHT22;8882;53.192;8.184;2022-09-16T10:02:47;16.50;99.90
17529;DHT22;8882;53.192;8.184;2022-09-16T10:05:26;16.50;99.90
17529;DHT22;8882;53.192;8.184;2022-09-16T10:07:55;16.30;99.90
17529;DHT22;8882;53.192;8.184;2022-09-16T10:10:23;16.20;99.90
17529;DHT22;8882;53.192;8.184;2022-09-16T10:12:50;16.20;99.90
17529;DHT22;8882;53.192;8.184;2022-09-16T10:15:29;16.10;99.90
17529;DHT22;8882;53.192;8.184;2022-09-16T10:17:59;15.90;99.90
17529;DHT22;8882;53.192;8.184;2022-09-16T10:20:32;15.50;99.90
17529;DHT22;8882;53.192;8.184;2022-09-16T10:25:27;15.00;99.90
17529;DHT22;8882;53.192;8.184;2022-09-16T10:27:56;15.00;99.90
17529;DHT22;8882;53.192;8.184;2022-09-16T10:30:31;15.00;99.90
17529;DHT22;8882;53.192;8.184;2022-09-16T10:33:02;15.00;99.90
17529;DHT22;8882;53.192;8.184;2022-09-16T10:35:33;15.10;99.90
17529;DHT22;8882;53.192;8.184;2022-09-16T10:38:03;15.40;99.90
17529;DHT22;8882;53.192;8.184;2022-09-16T10:40:29;15.60;99.90
17529;DHT22;8882;53.192;8.184;2022-09-16T10:43:13;15.60;99.90
17529;DHT22;8882;53.192;8.184;2022-09-16T10:45:45;15.80;99.90
17529;DHT22;8882;53.192;8.184;2022-09-16T10:48:15;15.90;99.90
17529;DHT22;8882;53.192;8.184;2022-09-16T10:50:57;16.10;99.90
17529;DHT22;8882;53.192;8.184;2022-09-16T10:53:39;16.20;99.90
17529;DHT22;8882;53.192;8.184;2022-09-16T10:56:15;16.30;99.90
17529;DHT22;8882;53.192;8.184;2022-09-16T10:58:41;16.50;99.90
17529;DHT22;8882;53.192;8.184;2022-09-16T11:01:31;16.60;99.90
17529;DHT22;8882;53.192;8.184;2022-09-16T11:04:30;17.00;99.90
17529;DHT22;8882;53.192;8.184;2022-09-16T11:07:13;16.70;99.90
17529;DHT22;8882;53.192;8.184;2022-09-16T11:10:16;16.50;99.90
17529;DHT22;8882;53.192;8.184;2022-09-16T11:15:56;16.00;99.90
17529;DHT22;8882;53.192;8.184;2022-09-16T11:18:46;15.90;99.90
17529;DHT22;8882;53.192;8.184;2022-09-16T11:21:48;15.90;99.90
17529;DHT22;8882;53.192;8.184;2022-09-16T11:24:36;16.00;99.90
17529;DHT22;8882;53.192;8.184;2022-09-16T11:30:20;16.60;99.90
17529;DHT22;8882;53.192;8.184;2022-09-16T11:33:17;16.70;99.90
17529;DHT22;8882;53.192;8.184;2022-09-16T11:36:50;16.90;99.90
17529;DHT22;8882;53.192;8.184;2022-09-16T11:44:58;16.80;99.90
17529;DHT22;8882;53.192;8.184;2022-09-16T11:48:26;16.60;99.90
17529;DHT22;8882;53.192;8.184;2022-09-16T11:50:54;16.60;99.90
17529;DHT22;8882;53.192;8.184;2022-09-16T11:56:12;16.30;99.90
17529;DHT22;8882;53.192;8.184;2022-09-16T11:58:47;16.10;99.90
17529;DHT22;8882;53.192;8.184;2022-09-16T12:04:27;16.10;99.90
17529;DHT22;8882;53.192;8.184;2022-09-16T12:09:45;16.40;99.90
17529;DHT22;8882;53.192;8.184;2022-09-16T12:12:19;16.40;99.90
17529;DHT22;8882;53.192;8.184;2022-09-16T12:15:26;16.40;99.90
17529;DHT22;8882;53.192;8.184;2022-09-16T12:18:12;16.40;99.90
17529;DHT22;8882;53.192;8.184;2022-09-16T12:20:50;16.40;99.90
17529;DHT22;8882;53.192;8.184;2022-09-16T12:23:21;16.40;99.90
17529;DHT22;8882;53.192;8.184;2022-09-16T12:29:03;16.50;99.90
17529;DHT22;8882;53.192;8.184;2022-09-16T12:31:36;16.60;99.90
17529;DHT22;8882;53.192;8.184;2022-09-16T12:34:18;16.60;99.90
17529;DHT22;8882;53.192;8.184;2022-09-16T12:36:58;16.80;99.90
17529;DHT22;8882;53.192;8.184;2022-09-16T12:39:25;16.80;99.90
17529;DHT22;8882;53.192;8.184;2022-09-16T12:50:37;16.60;99.90
17529;DHT22;8882;53.192;8.184;2022-09-16T12:56:39;16.10;99.90
17529;DHT22;8882;53.192;8.184;2022-09-16T13:02:14;15.90;99.90
17529;DHT22;8882;53.192;8.184;2022-09-16T13:04:47;15.90;99.90
17529;DHT22;8882;53.192;8.184;2022-09-16T13:07:23;15.90;99.90
17529;DHT22;8882;53.192;8.184;2022-09-16T13:10:06;15.90;99.90
17529;DHT22;8882;53.192;8.184;2022-09-16T13:12:33;16.00;99.90
17529;DHT22;8882;53.192;8.184;2022-09-16T13:15:00;16.00;99.90
17529;DHT22;8882;53.192;8.184;2022-09-16T13:17:38;16.10;99.90
17529;DHT22;8882;53.192;8.184;2022-09-16T13:20:26;16.00;99.90
17529;DHT22;8882;53.192;8.184;2022-09-16T13:25:33;16.10;99.90
17529;DHT22;8882;53.192;8.184;2022-09-16T13:30:45;15.90;99.90
17529;DHT22;8882;53.192;8.184;2022-09-16T13:40:39;15.60;99.90
17529;DHT22;8882;53.192;8.184;2022-09-16T13:45:37;15.50;99.90
17529;DHT22;8882;53.192;8.184;2022-09-16T13:48:15;15.40;99.90
17529;DHT22;8882;53.192;8.184;2022-09-16T13:50:49;15.40;99.90
17529;DHT22;8882;53.192;8.184;2022-09-16T13:55:50;15.20;99.90
17529;DHT22;8882;53.192;8.184;2022-09-16T13:58:28;15.10;99.90
17529;DHT22;8882;53.192;8.184;2022-09-16T14:01:11;15.00;99.90
17529;DHT22;8882;53.192;8.184;2022-09-16T14:06:29;14.90;99.90
17529;DHT22;8882;53.192;8.184;2022-09-16T14:09:20;14.80;99.90
17529;DHT22;8882;53.192;8.184;2022-09-16T14:12:10;14.80;99.90
17529;DHT22;8882;53.192;8.184;2022-09-16T14:14:38;14.80;99.90
17529;DHT22;8882;53.192;8.184;2022-09-16T14:17:18;14.80;99.90
17529;DHT22;8882;53.192;8.184;2022-09-16T14:19:45;14.80;99.90
17529;DHT22;8882;53.192;8.184;2022-09-16T14:22:15;14.70;99.90
17529;DHT22;8882;53.192;8.184;2022-09-16T14:24:43;14.70;99.90
17529;DHT22;8882;53.192;8.184;2022-09-16T14:27:21;14.60;99.90
17529;DHT22;8882;53.192;8.184;2022-09-16T14:32:23;14.20;99.90
17529;DHT22;8882;53.192;8.184;2022-09-16T14:34:50;14.00;99.90
17529;DHT22;8882;53.192;8.184;2022-09-16T14:37:18;14.00;99.90
17529;DHT22;8882;53.192;8.184;2022-09-16T14:39:45;13.90;99.90
17529;DHT22;8882;53.192;8.184;2022-09-16T14:42:18;13.70;99.90
17529;DHT22;8882;53.192;8.184;2022-09-16T14:44:50;13.70;99.90
17529;DHT22;8882;53.192;8.184;2022-09-16T14:47:30;13.50;99.90
17529;DHT22;8882;53.192;8.184;2022-09-16T14:50:15;13.50;99.90
17529;DHT22;8882;53.192;8.184;2022-09-16T14:52:55;13.40;99.90
17529;DHT22;8882;53.192;8.184;2022-09-16T14:55:26;13.30;99.90
17529;DHT22;8882;53.192;8.184;2022-09-16T14:57:54;13.20;99.90
17529;DHT22;8882;53.192;8.184;2022-09-16T15:00:27;13.20;99.90
17529;DHT22;8882;53.192;8.184;2022-09-16T15:03:11;13.20;99.90
17529;DHT22;8882;53.192;8.184;2022-09-16T15:05:40;13.10;99.90
17529;DHT22;8882;53.192;8.184;2022-09-16T15:08:18;13.10;99.90
17529;DHT22;8882;53.192;8.184;2022-09-16T15:10:48;13.10;99.90
17529;DHT22;8882;53.192;8.184;2022-09-16T15:13:17;13.20;99.90
17529;DHT22;8882;53.192;8.184;2022-09-16T15:15:50;13.10;99.90
17529;DHT22;8882;53.192;8.184;2022-09-16T15:18:32;13.10;99.90
17529;DHT22;8882;53.192;8.184;2022-09-16T15:21:18;13.00;99.90
17529;DHT22;8882;53.192;8.184;2022-09-16T15:23:47;13.10;99.90
17529;DHT22;8882;53.192;8.184;2022-09-16T15:26:19;13.10;99.90
17529;DHT22;8882;53.192;8.184;2022-09-16T15:29:01;13.00;99.90
17529;DHT22;8882;53.192;8.184;2022-09-16T15:31:36;12.90;99.90
17529;DHT22;8882;53.192;8.184;2022-09-16T15:36:54;12.90;99.90
17529;DHT22;8882;53.192;8.184;2022-09-16T15:42:08;12.80;99.90
17529;DHT22;8882;53.192;8.184;2022-09-16T15:44:35;12.80;99.90
17529;DHT22;8882;53.192;8.184;2022-09-16T15:47:02;12.80;99.90
17529;DHT22;8882;53.192;8.184;2022-09-16T15:49:29;12.80;99.90
17529;DHT22;8882;53.192;8.184;2022-09-16T15:52:05;12.80;99.90
17529;DHT22;8882;53.192;8.184;2022-09-16T15:54:48;12.70;99.90
17529;DHT22;8882;53.192;8.184;2022-09-16T15:59:55;12.80;99.90
17529;DHT22;8882;53.192;8.184;2022-09-16T16:02:41;12.80;99.90
17529;DHT22;8882;53.192;8.184;2022-09-16T16:05:15;12.80;99.90
17529;DHT22;8882;53.192;8.184;2022-09-16T16:07:42;12.70;99.90
17529;DHT22;8882;53.192;8.184;2022-09-16T16:10:25;12.80;99.90
17529;DHT22;8882;53.192;8.184;2022-09-16T16:12:52;12.70;99.90
17529;DHT22;8882;53.192;8.184;2022-09-16T16:15:22;12.80;99.90
17529;DHT22;8882;53.192;8.184;2022-09-16T16:17:49;12.70;99.90
17529;DHT22;8882;53.192;8.184;2022-09-16T16:20:16;12.80;99.90
17529;DHT22;8882;53.192;8.184;2022-09-16T16:22:42;12.80;99.90
17529;DHT22;8882;53.192;8.184;2022-09-16T16:25:10;12.80;99.90
17529;DHT22;8882;53.192;8.184;2022-09-16T16:27:35;12.70;99.90
17529;DHT22;8882;53.192;8.184;2022-09-16T16:30:01;12.80;99.90
17529;DHT22;8882;53.192;8.184;2022-09-16T16:32:27;12.80;99.90
17529;DHT22;8882;53.192;8.184;2022-09-16T16:34:53;12.90;99.90
17529;DHT22;8882;53.192;8.184;2022-09-16T16:37:22;12.80;99.90
17529;DHT22;8882;53.192;8.184;2022-09-16T16:39:48;12.80;99.90
17529;DHT22;8882;53.192;8.184;2022-09-16T16:42:16;12.80;99.90
17529;DHT22;8882;53.192;8.184;2022-09-16T16:44:42;12.80;99.90
17529;DHT22;8882;53.192;8.184;2022-09-16T16:47:08;12.80;99.90
17529;DHT22;8882;53.192;8.184;2022-09-16T16:49:35;12.80;99.90
17529;DHT22;8882;53.192;8.184;2022-09-16T16:52:01;12.80;99.90
17529;DHT22;8882;53.192;8.184;2022-09-16T16:54:27;12.70;99.90
17529;DHT22;8882;53.192;8.184;2022-09-16T16:56:54;12.70;99.90
17529;DHT22;8882;53.192;8.184;2022-09-16T16:59:20;12.60;99.90
17529;DHT22;8882;53.192;8.184;2022-09-16T17:01:49;12.60;99.90
17529;DHT22;8882;53.192;8.184;2022-09-16T17:04:15;12.50;99.90
17529;DHT22;8882;53.192;8.184;2022-09-16T17:06:40;12.50;99.90
17529;DHT22;8882;53.192;8.184;2022-09-16T17:09:07;12.40;99.90
17529;DHT22;8882;53.192;8.184;2022-09-16T17:11:34;12.40;99.90
17529;DHT22;8882;53.192;8.184;2022-09-16T17:14:04;12.30;99.90
17529;DHT22;8882;53.192;8.184;2022-09-16T17:16:33;12.30;99.90
17529;DHT22;8882;53.192;8.184;2022-09-16T17:19:00;12.30;99.90
17529;DHT22;8882;53.192;8.184;2022-09-16T17:21:31;12.30;99.90
17529;DHT22;8882;53.192;8.184;2022-09-16T17:23:57;12.30;99.90
17529;DHT22;8882;53.192;8.184;2022-09-16T17:26:24;12.40;99.90
17529;DHT22;8882;53.192;8.184;2022-09-16T17:28:51;12.30;99.90
17529;DHT22;8882;53.192;8.184;2022-09-16T17:31:23;12.30;99.90
17529;DHT22;8882;53.192;8.184;2022-09-16T17:33:52;12.20;99.90
17529;DHT22;8882;53.192;8.184;2022-09-16T17:36:19;12.20;99.90
17529;DHT22;8882;53.192;8.184;2022-09-16T17:38:47;12.30;99.90
17529;DHT22;8882;53.192;8.184;2022-09-16T17:41:15;12.20;99.90
17529;DHT22;8882;53.192;8.184;2022-09-16T17:43:42;12.20;99.90
17529;DHT22;8882;53.192;8.184;2022-09-16T17:46:13;12.20;99.90
17529;DHT22;8882;53.192;8.184;2022-09-16T17:48:40;12.20;99.90
17529;DHT22;8882;53.192;8.184;2022-09-16T17:51:06;12.20;99.90
17529;DHT22;8882;53.192;8.184;2022-09-16T17:53:33;12.20;99.90
17529;DHT22;8882;53.192;8.184;2022-09-16T17:56:07;12.20;99.90
17529;DHT22;8882;53.192;8.184;2022-09-16T17:58:34;12.30;99.90
17529;DHT22;8882;53.192;8.184;2022-09-16T18:01:11;12.30;99.90
17529;DHT22;8882;53.192;8.184;2022-09-16T18:03:38;12.30;99.90
17529;DHT22;8882;53.192;8.184;2022-09-16T18:06:08;12.30;99.90
17529;DHT22;8882;53.192;8.184;2022-09-16T18:08:35;12.20;99.90
17529;DHT22;8882;53.192;8.184;2022-09-16T18:11:01;12.30;99.90
17529;DHT22;8882;53.192;8.184;2022-09-16T18:13:27;12.30;99.90
17529;DHT22;8882;53.192;8.184;2022-09-16T18:15:52;12.30;99.90
17529;DHT22;8882;53.192;8.184;2022-09-16T18:18:18;12.30;99.90
17529;DHT22;8882;53.192;8.184;2022-09-16T18:20:50;12.30;99.90
17529;DHT22;8882;53.192;8.184;2022-09-16T18:23:16;12.30;99.90
17529;DHT22;8882;53.192;8.184;2022-09-16T18:25:42;12.30;99.90
17529;DHT22;8882;53.192;8.184;2022-09-16T18:28:07;12.30;99.90
17529;DHT22;8882;53.192;8.184;2022-09-16T18:30:33;12.30;99.90
17529;DHT22;8882;53.192;8.184;2022-09-16T18:32:58;12.20;99.90
17529;DHT22;8882;53.192;8.184;2022-09-16T18:35:24;12.20;99.90
17529;DHT22;8882;53.192;8.184;2022-09-16T18:37:49;12.20;99.90
17529;DHT22;8882;53.192;8.184;2022-09-16T18:40:15;12.20;99.90
17529;DHT22;8882;53.192;8.184;2022-09-16T18:42:41;12.20;99.90
17529;DHT22;8882;53.192;8.184;2022-09-16T18:45:06;12.20;99.90
17529;DHT22;8882;53.192;8.184;2022-09-16T18:47:32;12.10;99.90
17529;DHT22;8882;53.192;8.184;2022-09-16T18:49:58;12.10;99.90
17529;DHT22;8882;53.192;8.184;2022-09-16T18:52:23;12.10;99.90
17529;DHT22;8882;53.192;8.184;2022-09-16T18:54:52;12.10;99.90
17529;DHT22;8882;53.192;8.184;2022-09-16T18:57:17;12.10;99.90
17529;DHT22;8882;53.192;8.184;2022-09-16T18:59:43;12.30;99.90
17529;DHT22;8882;53.192;8.184;2022-09-16T19:02:10;12.40;99.90
17529;DHT22;8882;53.192;8.184;2022-09-16T19:04:40;12.40;99.90
17529;DHT22;8882;53.192;8.184;2022-09-16T19:07:08;12.40;99.90
17529;DHT22;8882;53.192;8.184;2022-09-16T19:09:36;12.40;99.90
17529;DHT22;8882;53.192;8.184;2022-09-16T19:12:03;12.40;99.90
17529;DHT22;8882;53.192;8.184;2022-09-16T19:14:29;12.40;99.90
17529;DHT22;8882;53.192;8.184;2022-09-16T19:16:54;12.40;99.90
17529;DHT22;8882;53.192;8.184;2022-09-16T19:19:20;12.30;99.90
17529;DHT22;8882;53.192;8.184;2022-09-16T19:21:46;12.40;99.90
17529;DHT22;8882;53.192;8.184;2022-09-16T19:24:14;12.40;99.90
17529;DHT22;8882;53.192;8.184;2022-09-16T19:26:41;12.40;99.90
17529;DHT22;8882;53.192;8.184;2022-09-16T19:29:08;12.50;99.90
17529;DHT22;8882;53.192;8.184;2022-09-16T19:31:36;12.50;99.90
17529;DHT22;8882;53.192;8.184;2022-09-16T19:34:02;12.60;99.90
17529;DHT22;8882;53.192;8.184;2022-09-16T19:36:30;12.60;99.90
17529;DHT22;8882;53.192;8.184;2022-09-16T19:38:57;12.60;99.90
17529;DHT22;8882;53.192;8.184;2022-09-16T19:41:27;12.60;99.90
17529;DHT22;8882;53.192;8.184;2022-09-16T19:43:58;12.60;99.90
17529;DHT22;8882;53.192;8.184;2022-09-16T19:46:24;12.70;99.90
17529;DHT22;8882;53.192;8.184;2022-09-16T19:48:51;12.70;99.90
17529;DHT22;8882;53.192;8.184;2022-09-16T19:51:19;12.70;99.90
17529;DHT22;8882;53.192;8.184;2022-09-16T19:53:47;12.70;99.90
17529;DHT22;8882;53.192;8.184;2022-09-16T19:56:22;12.70;99.90
17529;DHT22;8882;53.192;8.184;2022-09-16T19:58:49;12.70;99.90
17529;DHT22;8882;53.192;8.184;2022-09-16T20:01:26;12.70;99.90
17529;DHT22;8882;53.192;8.184;2022-09-16T20:03:52;12.70;99.90
17529;DHT22;8882;53.192;8.184;2022-09-16T20:06:20;12.70;99.90
17529;DHT22;8882;53.192;8.184;2022-09-16T20:08:47;12.70;99.90
17529;DHT22;8882;53.192;8.184;2022-09-16T20:11:18;12.70;99.90
17529;DHT22;8882;53.192;8.184;2022-09-16T20:13:51;12.70;99.90
17529;DHT22;8882;53.192;8.184;2022-09-16T20:16:18;12.70;99.90
17529;DHT22;8882;53.192;8.184;2022-09-16T20:18:44;12.70;99.90
17529;DHT22;8882;53.192;8.184;2022-09-16T20:21:11;12.70;99.90
17529;DHT22;8882;53.192;8.184;2022-09-16T20:23:37;12.70;99.90
17529;DHT22;8882;53.192;8.184;2022-09-16T20:26:06;12.70;99.90
17529;DHT22;8882;53.192;8.184;2022-09-16T20:28:39;12.70;99.90
17529;DHT22;8882;53.192;8.184;2022-09-16T20:31:06;12.70;99.90
17529;DHT22;8882;53.192;8.184;2022-09-16T20:33:32;12.60;99.90
17529;DHT22;8882;53.192;8.184;2022-09-16T20:36:05;12.60;99.90
17529;DHT22;8882;53.192;8.184;2022-09-16T20:38:33;12.60;99.90
17529;DHT22;8882;53.192;8.184;2022-09-16T20:41:07;12.60;99.90
17529;DHT22;8882;53.192;8.184;2022-09-16T20:43:33;12.60;99.90
17529;DHT22;8882;53.192;8.184;2022-09-16T20:46:10;12.60;99.90
17529;DHT22;8882;53.192;8.184;2022-09-16T20:48:37;12.60;99.90
17529;DHT22;8882;53.192;8.184;2022-09-16T20:51:08;12.60;99.90
17529;DHT22;8882;53.192;8.184;2022-09-16T20:53:35;12.60;99.90
17529;DHT22;8882;53.192;8.184;2022-09-16T20:56:03;12.60;99.90
17529;DHT22;8882;53.192;8.184;2022-09-16T20:58:29;12.60;99.90
